createdAt,value
2018-11-22T00:00:03.212Z,65.50
2018-11-22T00:01:03.136Z,65.97
2018-11-22T00:02:03.010Z,65.50
2018-11-22T00:03:02.929Z,65.69
2018-11-22T00:04:02.806Z,66.16
2018-11-22T00:05:02.703Z,66.25
2018-11-22T00:06:02.604Z,65.97
2018-11-22T00:07:02.512Z,66.16
2018-11-22T00:08:02.421Z,65.88
2018-11-22T00:09:02.303Z,66.25
2018-11-22T00:10:02.198Z,66.35
2018-11-22T00:11:02.098Z,66.06
2018-11-22T00:12:02.005Z,65.50
2018-11-22T00:13:01.910Z,65.69
2018-11-22T00:14:01.796Z,66.25
2018-11-22T00:15:01.695Z,66.25
2018-11-22T00:16:01.599Z,65.50
2018-11-22T00:17:01.489Z,65.69
2018-11-22T00:18:01.407Z,65.59
2018-11-22T00:19:01.290Z,65.59
2018-11-22T00:20:01.188Z,65.88
2018-11-22T00:21:01.093Z,65.59
2018-11-22T00:22:01.000Z,65.21
2018-11-22T00:23:00.896Z,65.21
2018-11-22T00:24:00.780Z,64.93
2018-11-22T00:25:00.681Z,65.21
2018-11-22T00:26:00.579Z,64.93
2018-11-22T00:27:00.479Z,64.55
2018-11-22T00:28:00.389Z,64.36
2018-11-22T00:29:00.276Z,64.64
2018-11-22T00:30:00.175Z,64.74
2018-11-22T00:31:00.071Z,63.98
2018-11-22T00:31:59.969Z,63.70
2018-11-22T00:32:59.885Z,63.42
2018-11-22T00:33:59.768Z,63.51
2018-11-22T00:34:59.665Z,63.60
2018-11-22T00:35:59.564Z,63.23
2018-11-22T00:36:59.461Z,62.85
2018-11-22T00:37:59.377Z,62.94
2018-11-22T00:38:59.259Z,63.32
2018-11-22T00:39:59.154Z,62.94
2018-11-22T00:40:59.054Z,62.85
2018-11-22T00:41:58.956Z,62.37
2018-11-22T00:42:58.868Z,62.47
2018-11-22T00:43:58.748Z,62.47
2018-11-22T00:44:58.651Z,61.90
2018-11-22T00:45:58.544Z,61.90
2018-11-22T00:46:58.444Z,61.90
2018-11-22T00:47:58.343Z,62.09
2018-11-22T00:48:58.281Z,61.71
2018-11-22T00:49:58.138Z,61.61
2018-11-22T00:50:58.035Z,61.80
2018-11-22T00:51:57.935Z,61.61
2018-11-22T00:52:57.840Z,61.05
2018-11-22T00:53:57.748Z,61.43
2018-11-22T00:54:57.628Z,61.24
2018-11-22T00:55:57.531Z,60.96
2018-11-22T00:56:57.429Z,61.05
2018-11-22T00:57:57.359Z,60.96
2018-11-22T00:58:57.236Z,60.86
2018-11-22T00:59:57.121Z,60.48
2018-11-22T01:00:57.022Z,60.38
2018-11-22T01:01:56.922Z,61.05
2018-11-22T01:02:56.821Z,60.77
2018-11-22T01:03:56.731Z,60.58
2018-11-22T01:04:56.613Z,60.86
2018-11-22T01:05:56.511Z,60.67
2018-11-22T01:06:56.414Z,60.86
2018-11-22T01:07:56.309Z,60.67
2018-11-22T01:08:56.225Z,60.86
2018-11-22T01:09:56.107Z,60.58
2018-11-22T01:10:56.009Z,60.96
2018-11-22T01:11:55.902Z,60.10
2018-11-22T01:12:55.798Z,60.10
2018-11-22T01:13:55.719Z,60.10
2018-11-22T01:14:55.598Z,60.29
2018-11-22T01:15:55.498Z,60.38
2018-11-22T01:16:55.398Z,59.44
2018-11-22T01:17:55.295Z,59.72
2018-11-22T01:18:55.210Z,59.91
2018-11-22T01:19:55.093Z,59.44
2018-11-22T01:20:54.991Z,60.10
2018-11-22T01:21:54.888Z,60.48
2018-11-22T01:22:55.085Z,60.38
2018-11-22T01:23:54.705Z,60.77
2018-11-22T01:24:54.583Z,60.00
2018-11-22T01:25:54.482Z,60.10
2018-11-22T01:26:54.389Z,59.81
2018-11-22T01:27:54.281Z,59.53
2018-11-22T01:28:54.196Z,59.44
2018-11-22T01:29:54.178Z,59.63
2018-11-22T01:30:53.975Z,59.81
2018-11-22T01:31:53.872Z,59.81
2018-11-22T01:32:53.772Z,59.98
2018-11-22T01:33:53.691Z,59.79
2018-11-22T01:34:53.573Z,59.69
2018-11-22T01:35:53.473Z,59.69
2018-11-22T01:36:53.484Z,59.69
2018-11-22T01:37:53.265Z,59.63
2018-11-22T01:38:53.177Z,59.16
2018-11-22T01:39:53.060Z,58.49
2018-11-22T01:40:52.960Z,58.59
2018-11-22T01:41:52.861Z,58.84
2018-11-22T01:42:52.759Z,58.49
2018-11-22T01:43:52.770Z,58.56
2018-11-22T01:44:52.552Z,58.65
2018-11-22T01:45:52.452Z,58.84
2018-11-22T01:46:52.349Z,58.56
2018-11-22T01:47:52.246Z,58.37
2018-11-22T01:48:52.164Z,58.49
2018-11-22T01:49:52.043Z,58.47
2018-11-22T01:50:52.049Z,58.28
2018-11-22T01:51:51.840Z,58.59
2018-11-22T01:52:51.739Z,57.92
2018-11-22T01:53:51.653Z,58.02
2018-11-22T01:54:51.549Z,57.99
2018-11-22T01:55:51.436Z,57.73
2018-11-22T01:56:51.332Z,57.99
2018-11-22T01:57:51.342Z,58.30
2018-11-22T01:58:51.146Z,58.02
2018-11-22T01:59:51.027Z,57.92
2018-11-22T02:00:50.926Z,57.90
2018-11-22T02:01:50.829Z,58.18
2018-11-22T02:02:50.719Z,57.92
2018-11-22T02:03:50.635Z,57.71
2018-11-22T02:04:50.625Z,57.45
2018-11-22T02:05:50.416Z,57.99
2018-11-22T02:06:50.313Z,57.80
2018-11-22T02:07:50.214Z,57.71
2018-11-22T02:08:50.131Z,57.07
2018-11-22T02:09:50.012Z,57.42
2018-11-22T02:10:49.908Z,57.54
2018-11-22T02:11:49.911Z,57.52
2018-11-22T02:12:49.704Z,57.61
2018-11-22T02:13:49.620Z,57.17
2018-11-22T02:14:49.499Z,56.95
2018-11-22T02:15:49.397Z,56.60
2018-11-22T02:16:49.295Z,56.88
2018-11-22T02:17:49.207Z,55.82
2018-11-22T02:18:49.219Z,56.41
2018-11-22T02:19:48.991Z,56.20
2018-11-22T02:20:48.890Z,56.20
2018-11-22T02:21:48.787Z,56.01
2018-11-22T02:22:48.686Z,56.22
2018-11-22T02:23:48.597Z,55.91
2018-11-22T02:24:48.649Z,55.65
2018-11-22T02:25:48.381Z,55.91
2018-11-22T02:26:48.278Z,56.10
2018-11-22T02:27:48.177Z,56.20
2018-11-22T02:28:48.075Z,55.75
2018-11-22T02:29:47.988Z,55.63
2018-11-22T02:30:47.874Z,55.63
2018-11-22T02:31:47.769Z,55.82
2018-11-22T02:32:47.664Z,55.82
2018-11-22T02:33:47.578Z,55.63
2018-11-22T02:34:47.460Z,55.25
2018-11-22T02:35:47.361Z,54.68
2018-11-22T02:36:47.259Z,55.15
2018-11-22T02:37:47.158Z,54.87
2018-11-22T02:38:47.060Z,55.15
2018-11-22T02:39:47.076Z,54.96
2018-11-22T02:40:46.853Z,55.06
2018-11-22T02:41:46.753Z,55.06
2018-11-22T02:42:46.647Z,55.15
2018-11-22T02:43:46.553Z,55.15
2018-11-22T02:44:46.461Z,54.87
2018-11-22T02:45:46.440Z,54.49
2018-11-22T02:46:46.239Z,54.68
2018-11-22T02:47:46.141Z,54.68
2018-11-22T02:48:46.040Z,54.30
2018-11-22T02:49:45.959Z,54.58
2018-11-22T02:50:45.832Z,54.39
2018-11-22T02:51:45.728Z,54.02
2018-11-22T02:52:45.625Z,54.02
2018-11-22T02:53:45.526Z,54.02
2018-11-22T02:54:45.442Z,53.83
2018-11-22T02:55:45.322Z,54.30
2018-11-22T02:56:45.221Z,54.02
2018-11-22T02:57:45.119Z,53.83
2018-11-22T02:58:45.018Z,53.17
2018-11-22T02:59:44.930Z,53.64
2018-11-22T03:00:44.818Z,53.74
2018-11-22T03:01:44.712Z,52.98
2018-11-22T03:02:44.606Z,53.26
2018-11-22T03:03:44.508Z,53.55
2018-11-22T03:04:44.423Z,53.36
2018-11-22T03:05:44.304Z,53.07
2018-11-22T03:06:44.206Z,52.41
2018-11-22T03:07:44.100Z,53.07
2018-11-22T03:08:44.002Z,52.98
2018-11-22T03:09:43.918Z,52.60
2018-11-22T03:10:43.801Z,52.69
2018-11-22T03:11:43.694Z,52.50
2018-11-22T03:12:43.595Z,52.31
2018-11-22T03:13:43.494Z,52.03
2018-11-22T03:14:43.404Z,52.12
2018-11-22T03:15:43.289Z,51.93
2018-11-22T03:16:43.185Z,52.22
2018-11-22T03:17:43.085Z,52.22
2018-11-22T03:18:43.003Z,51.56
2018-11-22T03:19:42.897Z,51.65
2018-11-22T03:20:42.778Z,51.84
2018-11-22T03:21:42.677Z,51.65
2018-11-22T03:22:42.576Z,51.84
2018-11-22T03:23:42.472Z,51.56
2018-11-22T03:24:42.386Z,51.56
2018-11-22T03:25:42.275Z,51.37
2018-11-22T03:26:42.166Z,51.28
2018-11-22T03:27:42.065Z,51.46
2018-11-22T03:28:41.962Z,51.37
2018-11-22T03:29:41.882Z,51.09
2018-11-22T03:30:41.763Z,51.75
2018-11-22T03:31:41.660Z,51.28
2018-11-22T03:32:41.558Z,50.99
2018-11-22T03:33:41.455Z,51.37
2018-11-22T03:34:41.368Z,51.46
2018-11-22T03:35:41.251Z,51.56
2018-11-22T03:36:41.156Z,51.37
2018-11-22T03:37:41.045Z,51.37
2018-11-22T03:38:40.949Z,51.28
2018-11-22T03:39:40.854Z,51.28
2018-11-22T03:40:40.743Z,51.37
2018-11-22T03:41:40.643Z,51.46
2018-11-22T03:42:40.541Z,51.28
2018-11-22T03:43:40.435Z,51.46
2018-11-22T03:44:40.354Z,51.56
2018-11-22T03:45:40.233Z,50.90
2018-11-22T03:46:40.129Z,50.80
2018-11-22T03:47:40.025Z,50.61
2018-11-22T03:48:39.926Z,50.61
2018-11-22T03:49:39.841Z,50.80
2018-11-22T03:50:39.723Z,50.90
2018-11-22T03:51:39.623Z,50.71
2018-11-22T03:52:39.523Z,50.52
2018-11-22T03:53:39.419Z,50.90
2018-11-22T03:54:39.333Z,50.61
2018-11-22T03:55:39.215Z,50.80
2018-11-22T03:56:39.112Z,50.71
2018-11-22T03:57:39.012Z,51.56
2018-11-22T03:58:38.908Z,50.90
2018-11-22T03:59:38.824Z,50.71
2018-11-22T04:00:38.704Z,50.80
2018-11-22T04:01:38.605Z,50.80
2018-11-22T04:02:38.599Z,50.90
2018-11-22T04:03:38.399Z,51.18
2018-11-22T04:04:38.314Z,50.99
2018-11-22T04:05:38.197Z,50.61
2018-11-22T04:06:38.096Z,50.71
2018-11-22T04:07:37.996Z,51.46
2018-11-22T04:08:37.887Z,51.37
2018-11-22T04:09:37.917Z,51.37
2018-11-22T04:10:37.682Z,51.46
2018-11-22T04:11:37.582Z,51.46
2018-11-22T04:12:37.482Z,50.80
2018-11-22T04:13:37.392Z,50.61
2018-11-22T04:14:37.294Z,50.80
2018-11-22T04:15:37.177Z,50.71
2018-11-22T04:16:37.177Z,50.80
2018-11-22T04:17:36.971Z,50.52
2018-11-22T04:18:36.872Z,50.71
2018-11-22T04:19:36.783Z,50.71
2018-11-22T04:20:36.666Z,50.80
2018-11-22T04:21:36.565Z,50.90
2018-11-22T04:22:36.473Z,50.71
2018-11-22T04:23:36.465Z,50.90
2018-11-22T04:24:36.258Z,50.90
2018-11-22T04:25:36.170Z,51.46
2018-11-22T04:26:36.053Z,51.28
2018-11-22T04:27:35.956Z,50.90
2018-11-22T04:28:35.849Z,51.56
2018-11-22T04:29:35.754Z,51.46
2018-11-22T04:30:35.769Z,51.46
2018-11-22T04:31:35.548Z,51.56
2018-11-22T04:32:35.459Z,51.56
2018-11-22T04:33:35.352Z,51.46
2018-11-22T04:34:35.242Z,50.99
2018-11-22T04:35:35.152Z,51.18
2018-11-22T04:36:35.042Z,51.28
2018-11-22T04:37:35.033Z,51.09
2018-11-22T04:38:34.831Z,51.37
2018-11-22T04:39:34.732Z,51.09
2018-11-22T04:40:34.643Z,51.93
2018-11-22T04:41:34.525Z,51.37
2018-11-22T04:42:34.425Z,51.46
2018-11-22T04:43:34.324Z,51.46
2018-11-22T04:44:34.327Z,51.09
2018-11-22T04:45:34.134Z,51.18
2018-11-22T04:46:34.015Z,51.28
2018-11-22T04:47:33.912Z,51.18
2018-11-22T04:48:33.810Z,51.46
2018-11-22T04:49:33.711Z,51.28
2018-11-22T04:50:33.625Z,51.37
2018-11-22T04:51:33.620Z,51.28
2018-11-22T04:52:33.406Z,51.65
2018-11-22T04:53:33.304Z,51.18
2018-11-22T04:54:33.199Z,51.65
2018-11-22T04:55:33.112Z,51.18
2018-11-22T04:56:32.997Z,51.18
2018-11-22T04:57:32.897Z,51.46
2018-11-22T04:58:32.894Z,51.28
2018-11-22T04:59:32.693Z,51.18
2018-11-22T05:00:32.604Z,51.18
2018-11-22T05:01:32.489Z,51.37
2018-11-22T05:02:32.387Z,50.99
2018-11-22T05:03:32.284Z,51.28
2018-11-22T05:04:32.180Z,51.75
2018-11-22T05:05:32.202Z,51.37
2018-11-22T05:06:31.978Z,50.90
2018-11-22T05:07:31.872Z,50.90
2018-11-22T05:08:31.771Z,51.28
2018-11-22T05:09:31.670Z,51.28
2018-11-22T05:10:31.592Z,51.46
2018-11-22T05:11:31.598Z,51.46
2018-11-22T05:12:31.363Z,51.46
2018-11-22T05:13:31.262Z,51.28
2018-11-22T05:14:31.166Z,51.18
2018-11-22T05:15:31.072Z,51.84
2018-11-22T05:16:30.954Z,51.28
2018-11-22T05:17:30.854Z,51.46
2018-11-22T05:18:30.760Z,51.56
2018-11-22T05:19:30.770Z,51.65
2018-11-22T05:20:30.563Z,51.37
2018-11-22T05:21:30.449Z,51.09
2018-11-22T05:22:30.342Z,51.18
2018-11-22T05:23:30.462Z,51.28
2018-11-22T05:24:30.141Z,51.28
2018-11-22T05:25:30.051Z,51.28
2018-11-22T05:26:29.933Z,51.84
2018-11-22T05:27:29.837Z,51.46
2018-11-22T05:28:29.740Z,51.18
2018-11-22T05:29:29.628Z,51.09
2018-11-22T05:30:29.543Z,51.75
2018-11-22T05:31:29.425Z,50.99
2018-11-22T05:32:29.320Z,51.46
2018-11-22T05:33:29.219Z,51.75
2018-11-22T05:34:29.117Z,51.09
2018-11-22T05:35:29.031Z,51.28
2018-11-22T05:36:28.914Z,50.90
2018-11-22T05:37:28.812Z,51.18
2018-11-22T05:38:28.712Z,51.28
2018-11-22T05:39:28.614Z,51.37
2018-11-22T05:40:28.523Z,51.46
2018-11-22T05:41:28.404Z,51.28
2018-11-22T05:42:28.304Z,51.46
2018-11-22T05:43:28.200Z,50.99
2018-11-22T05:44:28.098Z,51.37
2018-11-22T05:45:28.017Z,51.18
2018-11-22T05:46:27.899Z,51.28
2018-11-22T05:47:27.796Z,51.09
2018-11-22T05:48:27.694Z,51.37
2018-11-22T05:49:27.588Z,51.37
2018-11-22T05:50:27.503Z,51.65
2018-11-22T05:51:27.383Z,51.65
2018-11-22T05:52:27.286Z,51.46
2018-11-22T05:53:27.187Z,51.18
2018-11-22T05:54:27.079Z,51.18
2018-11-22T05:55:26.994Z,51.18
2018-11-22T05:56:26.875Z,51.46
2018-11-22T05:57:26.780Z,51.37
2018-11-22T05:58:26.673Z,51.46
2018-11-22T05:59:26.570Z,51.46
2018-11-22T06:00:26.486Z,51.18
2018-11-22T06:01:26.367Z,51.28
2018-11-22T06:02:26.263Z,51.46
2018-11-22T06:03:26.161Z,51.37
2018-11-22T06:04:26.059Z,51.46
2018-11-22T06:05:25.974Z,51.18
2018-11-22T06:06:25.876Z,51.46
2018-11-22T06:07:25.755Z,51.46
2018-11-22T06:08:25.650Z,51.37
2018-11-22T06:09:25.549Z,51.28
2018-11-22T06:10:25.449Z,51.18
2018-11-22T06:11:25.362Z,51.28
2018-11-22T06:12:25.251Z,51.28
2018-11-22T06:13:25.142Z,51.46
2018-11-22T06:14:25.048Z,51.75
2018-11-22T06:15:24.939Z,51.84
2018-11-22T06:16:24.852Z,51.56
2018-11-22T06:17:24.736Z,51.75
2018-11-22T06:18:24.634Z,51.46
2018-11-22T06:19:24.531Z,51.09
2018-11-22T06:20:24.432Z,51.46
2018-11-22T06:21:24.341Z,51.37
2018-11-22T06:22:24.228Z,51.46
2018-11-22T06:23:24.123Z,51.28
2018-11-22T06:24:24.023Z,51.37
2018-11-22T06:25:23.921Z,51.46
2018-11-22T06:26:23.833Z,51.93
2018-11-22T06:27:23.713Z,51.65
2018-11-22T06:28:23.610Z,51.75
2018-11-22T06:29:23.614Z,52.31
2018-11-22T06:30:23.408Z,52.22
2018-11-22T06:31:23.324Z,52.31
2018-11-22T06:32:23.205Z,52.22
2018-11-22T06:33:23.103Z,52.03
2018-11-22T06:34:23.000Z,51.75
2018-11-22T06:35:22.901Z,51.84
2018-11-22T06:36:22.913Z,51.84
2018-11-22T06:37:22.693Z,51.65
2018-11-22T06:38:22.592Z,51.65
2018-11-22T06:39:22.491Z,51.84
2018-11-22T06:40:22.389Z,51.56
2018-11-22T06:41:22.303Z,51.65
2018-11-22T06:42:22.188Z,51.65
2018-11-22T06:43:22.085Z,51.75
2018-11-22T06:44:21.980Z,51.56
2018-11-22T06:45:21.877Z,51.37
2018-11-22T06:46:21.794Z,51.37
2018-11-22T06:47:21.672Z,51.37
2018-11-22T06:48:21.571Z,51.46
2018-11-22T06:49:21.472Z,51.49
2018-11-22T06:50:21.467Z,51.68
2018-11-22T06:51:21.282Z,51.56
2018-11-22T06:52:21.162Z,51.46
2018-11-22T06:53:21.064Z,51.46
2018-11-22T06:54:20.957Z,51.56
2018-11-22T06:55:20.859Z,51.75
2018-11-22T06:56:20.770Z,51.56
2018-11-22T06:57:20.761Z,51.68
2018-11-22T06:58:20.550Z,52.15
2018-11-22T06:59:20.448Z,52.25
2018-11-22T07:00:20.348Z,52.41
2018-11-22T07:01:20.284Z,52.62
2018-11-22T07:02:20.140Z,51.87
2018-11-22T07:03:20.037Z,52.15
2018-11-22T07:04:20.040Z,51.68
2018-11-22T07:05:19.835Z,51.68
2018-11-22T07:06:19.751Z,51.77
2018-11-22T07:07:19.629Z,51.68
2018-11-22T07:08:19.529Z,51.58
2018-11-22T07:09:19.429Z,51.77
2018-11-22T07:10:19.326Z,51.77
2018-11-22T07:11:19.350Z,51.77
2018-11-22T07:12:19.118Z,52.15
2018-11-22T07:13:19.017Z,51.87
2018-11-22T07:14:18.918Z,52.15
2018-11-22T07:15:18.815Z,51.87
2018-11-22T07:16:18.726Z,51.87
2018-11-22T07:17:18.610Z,51.68
2018-11-22T07:18:18.612Z,51.39
2018-11-22T07:19:18.405Z,51.77
2018-11-22T07:20:18.304Z,51.87
2018-11-22T07:21:18.221Z,51.77
2018-11-22T07:22:18.915Z,51.77
2018-11-22T07:23:17.999Z,51.68
2018-11-22T07:24:17.899Z,51.68
2018-11-22T07:25:17.892Z,51.58
2018-11-22T07:26:17.709Z,51.39
2018-11-22T07:27:17.591Z,51.49
2018-11-22T07:28:17.493Z,51.87
2018-11-22T07:29:17.389Z,51.58
2018-11-22T07:30:17.284Z,51.87
2018-11-22T07:31:17.197Z,51.87
2018-11-22T07:32:17.188Z,51.68
2018-11-22T07:33:16.981Z,51.68
2018-11-22T07:34:16.876Z,51.77
2018-11-22T07:35:16.775Z,51.58
2018-11-22T07:36:16.690Z,51.87
2018-11-22T07:37:16.574Z,51.68
2018-11-22T07:38:16.469Z,51.68
2018-11-22T07:39:16.481Z,51.68
2018-11-22T07:40:16.267Z,51.58
2018-11-22T07:41:16.178Z,51.39
2018-11-22T07:42:16.063Z,51.49
2018-11-22T07:43:15.967Z,51.77
2018-11-22T07:44:15.857Z,51.58
2018-11-22T07:45:15.761Z,51.58
2018-11-22T07:46:15.773Z,51.58
2018-11-22T07:47:15.552Z,51.58
2018-11-22T07:48:15.456Z,51.68
2018-11-22T07:49:15.350Z,51.87
2018-11-22T07:50:15.246Z,51.87
2018-11-22T07:51:15.149Z,51.77
2018-11-22T07:52:15.058Z,51.68
2018-11-22T07:53:15.042Z,52.44
2018-11-22T07:54:14.841Z,52.25
2018-11-22T07:55:14.743Z,52.34
2018-11-22T07:56:14.637Z,51.68
2018-11-22T07:57:14.552Z,51.77
2018-11-22T07:58:14.435Z,52.44
2018-11-22T07:59:14.332Z,52.62
2018-11-22T08:00:14.236Z,52.25
2018-11-22T08:01:14.129Z,52.53
2018-11-22T08:02:14.042Z,52.34
2018-11-22T08:03:13.927Z,52.34
2018-11-22T08:04:13.825Z,53.00
2018-11-22T08:05:13.722Z,53.00
2018-11-22T08:06:13.624Z,52.72
2018-11-22T08:07:13.533Z,52.72
2018-11-22T08:08:13.416Z,53.66
2018-11-22T08:09:13.315Z,53.47
2018-11-22T08:10:13.211Z,53.66
2018-11-22T08:11:13.112Z,53.57
2018-11-22T08:12:13.025Z,53.38
2018-11-22T08:13:12.908Z,53.85
2018-11-22T08:14:12.807Z,53.47
2018-11-22T08:15:12.705Z,53.95
2018-11-22T08:16:12.601Z,53.66
2018-11-22T08:17:12.518Z,53.47
2018-11-22T08:18:12.401Z,54.14
2018-11-22T08:19:12.302Z,54.42
2018-11-22T08:20:12.201Z,54.23
2018-11-22T08:21:12.101Z,54.52
2018-11-22T08:22:12.019Z,54.61
2018-11-22T08:23:11.897Z,54.90
2018-11-22T08:24:11.789Z,54.99
2018-11-22T08:25:11.693Z,54.90
2018-11-22T08:26:11.588Z,55.75
2018-11-22T08:27:11.505Z,55.84
2018-11-22T08:28:11.383Z,56.03
2018-11-22T08:29:11.285Z,56.13
2018-11-22T08:30:11.188Z,56.03
2018-11-22T08:31:11.080Z,56.13
2018-11-22T08:32:10.997Z,56.41
2018-11-22T08:33:10.877Z,56.51
2018-11-22T08:34:10.782Z,56.32
2018-11-22T08:35:10.678Z,56.88
2018-11-22T08:36:10.570Z,57.35
2018-11-22T08:37:10.487Z,57.54
2018-11-22T08:38:10.369Z,57.83
2018-11-22T08:39:10.265Z,57.35
2018-11-22T08:40:10.168Z,58.30
2018-11-22T08:41:10.066Z,58.40
2018-11-22T08:42:09.979Z,58.40
2018-11-22T08:43:09.862Z,58.02
2018-11-22T08:44:09.759Z,58.40
2018-11-22T08:45:09.659Z,59.16
2018-11-22T08:46:09.557Z,59.44
2018-11-22T08:47:12.226Z,59.06
2018-11-22T08:48:09.455Z,59.53
2018-11-22T08:49:09.255Z,59.44
2018-11-22T08:50:09.152Z,59.63
2018-11-22T08:51:09.048Z,59.44
2018-11-22T08:52:08.978Z,59.16
2018-11-22T08:53:08.850Z,58.87
2018-11-22T08:54:08.747Z,58.49
2018-11-22T08:55:08.745Z,58.87
2018-11-22T08:56:08.550Z,59.44
2018-11-22T08:57:08.459Z,59.53
2018-11-22T08:58:08.341Z,59.25
2018-11-22T08:59:08.241Z,59.53
2018-11-22T09:00:08.137Z,59.34
2018-11-22T09:01:08.038Z,59.44
2018-11-22T09:02:08.058Z,59.25
2018-11-22T09:03:07.834Z,59.81
2018-11-22T09:04:07.733Z,60.29
2018-11-22T09:05:07.634Z,60.00
2018-11-22T09:06:07.533Z,60.13
2018-11-22T09:07:07.446Z,60.58
2018-11-22T09:08:07.328Z,60.48
2018-11-22T09:09:07.328Z,61.27
2018-11-22T09:10:07.126Z,60.80
2018-11-22T09:11:07.023Z,61.05
2018-11-22T09:12:06.937Z,60.80
2018-11-22T09:13:06.820Z,62.31
2018-11-22T09:14:06.722Z,61.61
2018-11-22T09:15:06.618Z,61.74
2018-11-22T09:16:06.624Z,61.83
2018-11-22T09:17:06.435Z,62.21
2018-11-22T09:18:06.318Z,63.26
2018-11-22T09:19:06.212Z,63.16
2018-11-22T09:20:06.112Z,63.26
2018-11-22T09:21:06.010Z,62.88
2018-11-22T09:22:05.928Z,62.97
2018-11-22T09:23:05.916Z,63.35
2018-11-22T09:24:05.708Z,63.45
2018-11-22T09:25:05.605Z,63.92
2018-11-22T09:26:05.508Z,64.87
2018-11-22T09:27:05.418Z,64.77
2018-11-22T09:28:05.303Z,65.15
2018-11-22T09:29:05.203Z,65.15
2018-11-22T09:30:05.098Z,66.09
2018-11-22T09:31:05.009Z,66.38
2018-11-22T09:32:04.914Z,66.00
2018-11-22T09:33:04.798Z,66.86
2018-11-22T09:34:04.698Z,67.90
2018-11-22T09:35:04.634Z,68.18
2018-11-22T09:36:04.494Z,68.56
2018-11-22T09:37:04.393Z,68.27
2018-11-22T09:38:04.303Z,68.56
2018-11-22T09:39:04.190Z,68.65
2018-11-22T09:40:04.093Z,68.75
2018-11-22T09:41:03.993Z,69.03
2018-11-22T09:42:03.905Z,68.75
2018-11-22T09:43:03.809Z,68.46
2018-11-22T09:44:03.698Z,68.84
2018-11-22T09:45:03.588Z,68.75
2018-11-22T09:46:03.485Z,68.08
2018-11-22T09:47:03.384Z,67.90
2018-11-22T09:48:03.300Z,67.80
2018-11-22T09:49:03.182Z,68.65
2018-11-22T09:50:03.080Z,68.75
2018-11-22T09:51:02.980Z,68.27
2018-11-22T09:52:02.881Z,67.90
2018-11-22T09:53:02.796Z,67.61
2018-11-22T09:54:02.679Z,68.94
2018-11-22T09:55:02.577Z,68.94
2018-11-22T09:56:02.477Z,67.99
2018-11-22T09:57:02.377Z,67.71
2018-11-22T09:58:02.290Z,68.46
2018-11-22T09:59:02.180Z,68.18
2018-11-22T10:00:02.078Z,67.24
2018-11-22T10:01:01.979Z,67.71
2018-11-22T10:02:01.873Z,67.90
2018-11-22T10:03:01.812Z,69.22
2018-11-22T10:04:01.670Z,69.22
2018-11-22T10:05:01.761Z,69.60
2018-11-22T10:06:01.471Z,68.84
2018-11-22T10:07:01.368Z,68.94
2018-11-22T10:08:01.285Z,68.75
2018-11-22T10:09:01.215Z,69.13
2018-11-22T10:10:01.067Z,68.75
2018-11-22T10:11:00.965Z,69.03
2018-11-22T10:12:00.865Z,68.94
2018-11-22T10:13:00.779Z,68.75
2018-11-22T10:14:00.667Z,68.65
2018-11-22T10:15:00.564Z,68.94
2018-11-22T10:16:00.463Z,68.94
2018-11-22T10:17:00.404Z,69.03
2018-11-22T10:18:00.281Z,68.65
2018-11-22T10:19:00.162Z,68.08
2018-11-22T10:20:00.062Z,69.13
2018-11-22T10:20:59.959Z,69.70
2018-11-22T10:21:59.862Z,69.70
2018-11-22T10:22:59.777Z,69.41
2018-11-22T10:23:59.696Z,70.07
2018-11-22T10:24:59.560Z,70.36
2018-11-22T10:25:59.457Z,69.79
2018-11-22T10:26:59.371Z,69.60
2018-11-22T10:27:59.273Z,69.51
2018-11-22T10:28:59.157Z,70.36
2018-11-22T10:29:59.076Z,69.89
2018-11-22T10:30:58.955Z,69.60
2018-11-22T10:31:58.958Z,69.60
2018-11-22T10:32:58.771Z,69.60
2018-11-22T10:33:58.654Z,69.70
2018-11-22T10:34:58.554Z,69.51
2018-11-22T10:35:58.462Z,69.70
2018-11-22T10:36:58.350Z,69.89
2018-11-22T10:37:58.397Z,69.70
2018-11-22T10:38:58.295Z,69.13
2018-11-22T10:39:58.052Z,69.22
2018-11-22T10:40:57.946Z,69.41
2018-11-22T10:41:57.852Z,68.65
2018-11-22T10:42:57.761Z,68.94
2018-11-22T10:43:57.647Z,68.94
2018-11-22T10:44:57.546Z,68.65
2018-11-22T10:45:57.547Z,68.46
2018-11-22T10:46:57.343Z,68.18
2018-11-22T10:47:57.291Z,68.75
2018-11-22T10:48:57.143Z,68.75
2018-11-22T10:49:57.041Z,69.22
2018-11-22T10:50:56.942Z,69.03
2018-11-22T10:51:56.838Z,68.94
2018-11-22T10:52:56.847Z,68.75
2018-11-22T10:53:56.656Z,69.22
2018-11-22T10:54:56.536Z,68.84
2018-11-22T10:55:56.438Z,68.75
2018-11-22T10:56:56.345Z,69.03
2018-11-22T10:57:56.236Z,69.03
2018-11-22T10:58:56.153Z,68.46
2018-11-22T10:59:56.141Z,68.75
2018-11-22T11:00:55.932Z,68.75
2018-11-22T11:01:55.833Z,68.84
2018-11-22T11:02:55.731Z,68.94
2018-11-22T11:03:55.646Z,67.80
2018-11-22T11:04:55.529Z,67.71
2018-11-22T11:05:55.430Z,67.14
2018-11-22T11:06:55.438Z,66.76
2018-11-22T11:07:55.227Z,66.76
2018-11-22T11:08:55.147Z,66.86
2018-11-22T11:09:55.026Z,66.47
2018-11-22T11:10:54.924Z,65.72
2018-11-22T11:11:54.844Z,65.91
2018-11-22T11:12:54.722Z,66.57
2018-11-22T11:13:54.741Z,67.14
2018-11-22T11:14:54.540Z,66.76
2018-11-22T11:15:54.421Z,67.71
2018-11-22T11:16:54.323Z,67.90
2018-11-22T11:17:54.220Z,67.33
2018-11-22T11:18:54.217Z,67.90
2018-11-22T11:19:54.020Z,68.08
2018-11-22T11:20:54.023Z,68.08
2018-11-22T11:21:53.819Z,68.18
2018-11-22T11:22:53.721Z,68.08
2018-11-22T11:23:53.630Z,67.99
2018-11-22T11:24:53.563Z,68.27
2018-11-22T11:25:53.414Z,69.60
2018-11-22T11:26:53.312Z,69.41
2018-11-22T11:27:53.214Z,69.51
2018-11-22T11:28:53.113Z,68.94
2018-11-22T11:29:53.030Z,69.60
2018-11-22T11:30:52.911Z,68.94
2018-11-22T11:31:52.814Z,68.94
2018-11-22T11:32:52.712Z,69.60
2018-11-22T11:33:52.612Z,69.60
2018-11-22T11:34:52.527Z,70.17
2018-11-22T11:35:52.407Z,69.98
2018-11-22T11:36:52.308Z,69.60
2018-11-22T11:37:52.210Z,69.51
2018-11-22T11:38:52.246Z,69.22
2018-11-22T11:39:52.024Z,69.60
2018-11-22T11:40:51.906Z,69.51
2018-11-22T11:41:51.806Z,70.55
2018-11-22T11:42:51.711Z,71.31
2018-11-22T11:43:51.608Z,71.02
2018-11-22T11:44:51.521Z,70.93
2018-11-22T11:45:51.402Z,70.83
2018-11-22T11:46:51.302Z,70.36
2018-11-22T11:47:51.205Z,70.93
2018-11-22T11:48:51.102Z,70.83
2018-11-22T11:49:51.026Z,70.83
2018-11-22T11:50:50.901Z,71.50
2018-11-22T11:51:50.865Z,71.02
2018-11-22T11:52:50.704Z,70.74
2018-11-22T11:53:50.605Z,70.36
2018-11-22T11:54:50.512Z,70.93
2018-11-22T11:55:50.398Z,70.74
2018-11-22T11:56:50.306Z,70.74
2018-11-22T11:57:50.201Z,71.34
2018-11-22T11:58:50.103Z,70.83
2018-11-22T11:59:50.012Z,71.40
2018-11-22T12:00:49.896Z,70.17
2018-11-22T12:01:49.794Z,70.26
2018-11-22T12:02:49.704Z,71.02
2018-11-22T12:03:49.596Z,70.17
2018-11-22T12:04:49.911Z,70.11
2018-11-22T12:05:49.394Z,69.73
2018-11-22T12:06:49.293Z,70.07
2018-11-22T12:07:49.193Z,69.89
2018-11-22T12:08:49.090Z,69.89
2018-11-22T12:09:49.110Z,70.64
2018-11-22T12:10:48.889Z,71.50
2018-11-22T12:11:48.790Z,71.40
2018-11-22T12:12:48.688Z,71.59
2018-11-22T12:13:48.588Z,72.06
2018-11-22T12:14:48.508Z,71.78
2018-11-22T12:16:09.363Z,71.50
2018-11-22T12:16:48.289Z,70.83
2018-11-22T12:17:48.186Z,70.74
2018-11-22T12:18:48.091Z,70.83
2018-11-22T12:19:48.001Z,70.45
2018-11-22T12:20:47.888Z,70.36
2018-11-22T12:21:47.788Z,70.07
2018-11-22T12:22:47.694Z,70.55
2018-11-22T12:23:48.520Z,69.98
2018-11-22T12:24:47.499Z,69.89
2018-11-22T12:25:47.384Z,69.73
2018-11-22T12:26:47.280Z,70.11
2018-11-22T12:27:47.196Z,69.41
2018-11-22T12:28:47.081Z,69.07
2018-11-22T12:29:46.997Z,69.79
2018-11-22T12:30:46.879Z,70.55
2018-11-22T12:31:46.777Z,70.07
2018-11-22T12:32:46.682Z,70.17
2018-11-22T12:33:46.584Z,70.17
2018-11-22T12:34:46.491Z,70.36
2018-11-22T12:35:46.377Z,69.70
2018-11-22T12:36:46.278Z,69.98
2018-11-22T12:37:46.201Z,69.13
2018-11-22T12:38:46.074Z,69.41
2018-11-22T12:39:45.989Z,69.70
2018-11-22T12:40:45.874Z,69.79
2018-11-22T12:41:45.775Z,69.70
2018-11-22T12:42:45.676Z,70.07
2018-11-22T12:43:45.570Z,69.79
2018-11-22T12:44:45.594Z,69.32
2018-11-22T12:45:45.369Z,69.51
2018-11-22T12:46:45.269Z,69.41
2018-11-22T12:47:45.168Z,70.07
2018-11-22T12:48:45.069Z,69.41
2018-11-22T12:49:44.983Z,69.41
2018-11-22T12:50:44.865Z,69.41